Terminal Aerodrome Forecast
Issued by NWS

Home | Current Version | Previous Version | Text Only | Print | Product List | Glossary On
Versions: 1 2 3 4 5 6 7 8 9 10 11 12 13 14 15 16 17 18 19 20 21 22 23 24 25 26 27 28 29 30 31 32 33 34 35 36 37 38 39 40 41 42 43 44 45 46 47 48 49 50
000
FTUS45 KGJT 250520
TAFTEX
TAF
KTEX 250520Z 2506/2606 00000KT P6SM SCT040
     FM251200 14003KT P6SM FEW020 OVC070
     FM251500 VRB03KT P6SM SCT060 BKN090
     FM251800 27006KT P6SM VCSH SCT060 BKN080
     FM252000 27006KT P6SM VCTS SCT040 BKN060CB
     FM260300 29005KT P6SM BKN100=

USA.gov is the U.S. government's official web portal to all federal, state and local government web resources and services.